sensor_id;sensor_type;location;lat;lon;timestamp;temperature;humidity
60353;DHT22;46196;52.970;6.954;2022-07-06T00:01:48;13.20;99.90
60353;DHT22;46196;52.970;6.954;2022-07-06T00:04:13;13.20;99.90
60353;DHT22;46196;52.970;6.954;2022-07-06T00:06:39;13.20;99.90
60353;DHT22;46196;52.970;6.954;2022-07-06T00:09:05;13.20;99.90
60353;DHT22;46196;52.970;6.954;2022-07-06T00:11:32;13.20;99.90
60353;DHT22;46196;52.970;6.954;2022-07-06T00:13:57;13.20;99.90
60353;DHT22;46196;52.970;6.954;2022-07-06T00:16:23;13.20;99.90
60353;DHT22;46196;52.970;6.954;2022-07-06T00:18:49;13.30;99.90
60353;DHT22;46196;52.970;6.954;2022-07-06T00:21:14;13.30;99.90
60353;DHT22;46196;52.970;6.954;2022-07-06T00:23:40;13.40;99.90
60353;DHT22;46196;52.970;6.954;2022-07-06T00:26:06;13.40;99.90
60353;DHT22;46196;52.970;6.954;2022-07-06T00:28:31;13.50;99.90
60353;DHT22;46196;52.970;6.954;2022-07-06T00:30:57;13.50;99.90
60353;DHT22;46196;52.970;6.954;2022-07-06T00:33:23;13.60;99.90
60353;DHT22;46196;52.970;6.954;2022-07-06T00:35:48;13.50;99.90
60353;DHT22;46196;52.970;6.954;2022-07-06T00:38:14;13.60;99.90
60353;DHT22;46196;52.970;6.954;2022-07-06T00:40:40;13.60;99.90
60353;DHT22;46196;52.970;6.954;2022-07-06T00:43:06;13.60;99.90
60353;DHT22;46196;52.970;6.954;2022-07-06T00:45:32;13.70;99.90
60353;DHT22;46196;52.970;6.954;2022-07-06T00:47:57;13.70;99.90
60353;DHT22;46196;52.970;6.954;2022-07-06T00:50:23;13.70;99.90
60353;DHT22;46196;52.970;6.954;2022-07-06T00:52:57;13.80;99.90
60353;DHT22;46196;52.970;6.954;2022-07-06T00:55:25;13.80;99.90
60353;DHT22;46196;52.970;6.954;2022-07-06T00:57:51;13.80;99.90
60353;DHT22;46196;52.970;6.954;2022-07-06T01:00:18;13.80;99.90
60353;DHT22;46196;52.970;6.954;2022-07-06T01:02:44;13.90;99.90
60353;DHT22;46196;52.970;6.954;2022-07-06T01:05:10;13.80;99.90
60353;DHT22;46196;52.970;6.954;2022-07-06T01:07:36;13.90;99.90
60353;DHT22;46196;52.970;6.954;2022-07-06T01:10:03;13.90;99.90
60353;DHT22;46196;52.970;6.954;2022-07-06T01:12:29;13.90;99.90
60353;DHT22;46196;52.970;6.954;2022-07-06T01:14:54;13.90;99.90
60353;DHT22;46196;52.970;6.954;2022-07-06T01:17:21;13.90;99.90
60353;DHT22;46196;52.970;6.954;2022-07-06T01:19:46;13.90;99.90
60353;DHT22;46196;52.970;6.954;2022-07-06T01:22:12;14.00;99.90
60353;DHT22;46196;52.970;6.954;2022-07-06T01:24:38;14.00;99.90
60353;DHT22;46196;52.970;6.954;2022-07-06T01:27:04;14.00;99.90
60353;DHT22;46196;52.970;6.954;2022-07-06T01:29:30;14.00;99.90
60353;DHT22;46196;52.970;6.954;2022-07-06T01:31:56;14.00;99.90
60353;DHT22;46196;52.970;6.954;2022-07-06T01:34:22;14.00;99.90
60353;DHT22;46196;52.970;6.954;2022-07-06T01:36:48;14.00;99.90
60353;DHT22;46196;52.970;6.954;2022-07-06T01:39:13;14.00;99.90
60353;DHT22;46196;52.970;6.954;2022-07-06T01:41:39;14.00;99.90
60353;DHT22;46196;52.970;6.954;2022-07-06T01:44:05;13.90;99.90
60353;DHT22;46196;52.970;6.954;2022-07-06T01:46:31;13.90;99.90
60353;DHT22;46196;52.970;6.954;2022-07-06T01:48:57;13.80;99.90
60353;DHT22;46196;52.970;6.954;2022-07-06T01:51:23;13.70;99.90
60353;DHT22;46196;52.970;6.954;2022-07-06T01:53:49;13.70;99.90
60353;DHT22;46196;52.970;6.954;2022-07-06T01:56:15;13.60;99.90
60353;DHT22;46196;52.970;6.954;2022-07-06T01:58:40;13.60;99.90
60353;DHT22;46196;52.970;6.954;2022-07-06T02:01:07;13.50;99.90
60353;DHT22;46196;52.970;6.954;2022-07-06T02:03:33;13.50;99.90
60353;DHT22;46196;52.970;6.954;2022-07-06T02:05:58;13.50;99.90
60353;DHT22;46196;52.970;6.954;2022-07-06T02:08:24;13.40;99.90
60353;DHT22;46196;52.970;6.954;2022-07-06T02:10:49;13.40;99.90
60353;DHT22;46196;52.970;6.954;2022-07-06T02:13:15;13.30;99.90
60353;DHT22;46196;52.970;6.954;2022-07-06T02:15:41;13.30;99.90
60353;DHT22;46196;52.970;6.954;2022-07-06T02:18:07;13.30;99.90
60353;DHT22;46196;52.970;6.954;2022-07-06T02:20:32;13.30;99.90
60353;DHT22;46196;52.970;6.954;2022-07-06T02:22:58;13.20;99.90
60353;DHT22;46196;52.970;6.954;2022-07-06T02:25:24;13.20;99.90
60353;DHT22;46196;52.970;6.954;2022-07-06T02:27:49;13.20;99.90
60353;DHT22;46196;52.970;6.954;2022-07-06T02:30:15;13.20;99.90
60353;DHT22;46196;52.970;6.954;2022-07-06T02:32:41;13.20;99.90
60353;DHT22;46196;52.970;6.954;2022-07-06T02:35:07;13.20;99.90
60353;DHT22;46196;52.970;6.954;2022-07-06T02:37:32;13.20;99.90
60353;DHT22;46196;52.970;6.954;2022-07-06T02:39:58;13.20;99.90
60353;DHT22;46196;52.970;6.954;2022-07-06T02:42:24;13.20;99.90
60353;DHT22;46196;52.970;6.954;2022-07-06T02:44:51;13.20;99.90
60353;DHT22;46196;52.970;6.954;2022-07-06T02:47:17;13.20;99.90
60353;DHT22;46196;52.970;6.954;2022-07-06T02:49:43;13.20;99.90
60353;DHT22;46196;52.970;6.954;2022-07-06T02:52:08;13.20;99.90
60353;DHT22;46196;52.970;6.954;2022-07-06T02:54:34;13.20;99.90
60353;DHT22;46196;52.970;6.954;2022-07-06T02:56:59;13.20;99.90
60353;DHT22;46196;52.970;6.954;2022-07-06T02:59:25;13.20;99.90
60353;DHT22;46196;52.970;6.954;2022-07-06T03:01:51;13.20;99.90
60353;DHT22;46196;52.970;6.954;2022-07-06T03:04:16;13.20;99.90
60353;DHT22;46196;52.970;6.954;2022-07-06T03:06:42;13.20;99.90
60353;DHT22;46196;52.970;6.954;2022-07-06T03:09:08;13.20;99.90
60353;DHT22;46196;52.970;6.954;2022-07-06T03:11:33;13.20;99.90
60353;DHT22;46196;52.970;6.954;2022-07-06T03:14:05;13.30;99.90
60353;DHT22;46196;52.970;6.954;2022-07-06T03:16:30;13.30;99.90
60353;DHT22;46196;52.970;6.954;2022-07-06T03:18:56;13.30;99.90
60353;DHT22;46196;52.970;6.954;2022-07-06T03:21:23;13.30;99.90
60353;DHT22;46196;52.970;6.954;2022-07-06T03:23:48;13.30;99.90
60353;DHT22;46196;52.970;6.954;2022-07-06T03:26:14;13.30;99.90
60353;DHT22;46196;52.970;6.954;2022-07-06T03:28:40;13.30;99.90
60353;DHT22;46196;52.970;6.954;2022-07-06T03:31:05;13.30;99.90
60353;DHT22;46196;52.970;6.954;2022-07-06T03:33:31;13.30;99.90
60353;DHT22;46196;52.970;6.954;2022-07-06T03:35:57;13.30;99.90
60353;DHT22;46196;52.970;6.954;2022-07-06T03:38:22;13.30;99.90
60353;DHT22;46196;52.970;6.954;2022-07-06T03:40:48;13.30;99.90
60353;DHT22;46196;52.970;6.954;2022-07-06T03:43:14;13.30;99.90
60353;DHT22;46196;52.970;6.954;2022-07-06T03:45:40;13.20;99.90
60353;DHT22;46196;52.970;6.954;2022-07-06T03:48:05;13.20;99.90
60353;DHT22;46196;52.970;6.954;2022-07-06T03:50:31;13.20;99.90
60353;DHT22;46196;52.970;6.954;2022-07-06T03:52:57;13.20;99.90
60353;DHT22;46196;52.970;6.954;2022-07-06T03:55:22;13.10;99.90
60353;DHT22;46196;52.970;6.954;2022-07-06T03:57:48;13.10;99.90
60353;DHT22;46196;52.970;6.954;2022-07-06T04:00:14;13.10;99.90
60353;DHT22;46196;52.970;6.954;2022-07-06T04:02:39;13.10;99.90
60353;DHT22;46196;52.970;6.954;2022-07-06T04:05:05;13.10;99.90
60353;DHT22;46196;52.970;6.954;2022-07-06T04:07:31;13.10;99.90
60353;DHT22;46196;52.970;6.954;2022-07-06T04:09:56;13.10;99.90
60353;DHT22;46196;52.970;6.954;2022-07-06T04:12:22;13.10;99.90
60353;DHT22;46196;52.970;6.954;2022-07-06T04:14:48;13.10;99.90
60353;DHT22;46196;52.970;6.954;2022-07-06T04:17:13;13.10;99.90
60353;DHT22;46196;52.970;6.954;2022-07-06T04:19:58;13.00;99.90
60353;DHT22;46196;52.970;6.954;2022-07-06T04:22:23;13.10;99.90
60353;DHT22;46196;52.970;6.954;2022-07-06T04:24:49;13.00;99.90
60353;DHT22;46196;52.970;6.954;2022-07-06T04:27:15;13.00;99.90
60353;DHT22;46196;52.970;6.954;2022-07-06T04:29:40;13.10;99.90
60353;DHT22;46196;52.970;6.954;2022-07-06T04:32:06;13.10;99.90
60353;DHT22;46196;52.970;6.954;2022-07-06T04:34:32;13.10;99.90
60353;DHT22;46196;52.970;6.954;2022-07-06T04:36:57;13.00;99.90
60353;DHT22;46196;52.970;6.954;2022-07-06T04:39:23;13.00;99.90
60353;DHT22;46196;52.970;6.954;2022-07-06T04:41:49;13.00;99.90
60353;DHT22;46196;52.970;6.954;2022-07-06T04:44:14;13.00;99.90
60353;DHT22;46196;52.970;6.954;2022-07-06T04:46:40;13.00;99.90
60353;DHT22;46196;52.970;6.954;2022-07-06T04:49:06;13.00;99.90
60353;DHT22;46196;52.970;6.954;2022-07-06T04:51:32;13.00;99.90
60353;DHT22;46196;52.970;6.954;2022-07-06T04:53:57;13.00;99.90
60353;DHT22;46196;52.970;6.954;2022-07-06T04:56:23;13.00;99.90
60353;DHT22;46196;52.970;6.954;2022-07-06T04:58:49;13.00;99.90
60353;DHT22;46196;52.970;6.954;2022-07-06T05:01:15;13.10;99.90
60353;DHT22;46196;52.970;6.954;2022-07-06T05:03:40;13.10;99.90
60353;DHT22;46196;52.970;6.954;2022-07-06T05:06:06;13.10;99.90
60353;DHT22;46196;52.970;6.954;2022-07-06T05:08:32;13.10;99.90
60353;DHT22;46196;52.970;6.954;2022-07-06T05:10:58;13.20;99.90
60353;DHT22;46196;52.970;6.954;2022-07-06T05:13:23;13.20;99.90
60353;DHT22;46196;52.970;6.954;2022-07-06T05:15:49;13.20;99.90
60353;DHT22;46196;52.970;6.954;2022-07-06T05:18:15;13.30;99.90
60353;DHT22;46196;52.970;6.954;2022-07-06T05:20:40;13.30;99.90
60353;DHT22;46196;52.970;6.954;2022-07-06T05:23:06;13.50;99.90
60353;DHT22;46196;52.970;6.954;2022-07-06T05:25:32;13.60;99.90
60353;DHT22;46196;52.970;6.954;2022-07-06T05:27:58;13.70;99.90
60353;DHT22;46196;52.970;6.954;2022-07-06T05:30:24;13.90;99.90
60353;DHT22;46196;52.970;6.954;2022-07-06T05:32:50;14.10;99.90
60353;DHT22;46196;52.970;6.954;2022-07-06T05:35:16;14.20;99.90
60353;DHT22;46196;52.970;6.954;2022-07-06T05:37:42;14.40;99.90
60353;DHT22;46196;52.970;6.954;2022-07-06T05:40:07;14.50;99.90
60353;DHT22;46196;52.970;6.954;2022-07-06T05:42:33;14.60;99.90
60353;DHT22;46196;52.970;6.954;2022-07-06T05:44:59;14.60;99.90
60353;DHT22;46196;52.970;6.954;2022-07-06T05:47:25;14.70;99.90
60353;DHT22;46196;52.970;6.954;2022-07-06T05:50:09;14.70;99.90
60353;DHT22;46196;52.970;6.954;2022-07-06T05:52:38;14.70;99.90
60353;DHT22;46196;52.970;6.954;2022-07-06T05:55:04;14.80;99.90
60353;DHT22;46196;52.970;6.954;2022-07-06T05:57:30;14.80;99.90
60353;DHT22;46196;52.970;6.954;2022-07-06T05:59:55;14.80;99.90
60353;DHT22;46196;52.970;6.954;2022-07-06T06:02:21;14.90;99.90
60353;DHT22;46196;52.970;6.954;2022-07-06T06:04:47;14.90;99.90
60353;DHT22;46196;52.970;6.954;2022-07-06T06:07:12;14.90;99.90
60353;DHT22;46196;52.970;6.954;2022-07-06T06:09:38;15.00;99.90
60353;DHT22;46196;52.970;6.954;2022-07-06T06:12:04;15.00;99.90
60353;DHT22;46196;52.970;6.954;2022-07-06T06:14:29;15.00;99.90
60353;DHT22;46196;52.970;6.954;2022-07-06T06:16:55;15.10;99.90
60353;DHT22;46196;52.970;6.954;2022-07-06T06:19:21;15.10;99.90
60353;DHT22;46196;52.970;6.954;2022-07-06T06:21:47;15.10;99.90
60353;DHT22;46196;52.970;6.954;2022-07-06T06:24:12;15.30;99.90
60353;DHT22;46196;52.970;6.954;2022-07-06T06:26:38;15.30;99.90
60353;DHT22;46196;52.970;6.954;2022-07-06T06:29:04;15.40;99.90
60353;DHT22;46196;52.970;6.954;2022-07-06T06:31:29;15.40;99.90
60353;DHT22;46196;52.970;6.954;2022-07-06T06:33:55;15.50;99.90
60353;DHT22;46196;52.970;6.954;2022-07-06T06:36:21;15.50;99.90
60353;DHT22;46196;52.970;6.954;2022-07-06T06:38:46;15.60;99.90
60353;DHT22;46196;52.970;6.954;2022-07-06T06:41:13;15.50;99.90
60353;DHT22;46196;52.970;6.954;2022-07-06T06:43:39;16.10;99.90
60353;DHT22;46196;52.970;6.954;2022-07-06T06:46:04;15.50;99.90
60353;DHT22;46196;52.970;6.954;2022-07-06T06:48:30;15.60;99.90
60353;DHT22;46196;52.970;6.954;2022-07-06T06:50:57;15.70;99.90
60353;DHT22;46196;52.970;6.954;2022-07-06T06:53:26;15.70;99.90
60353;DHT22;46196;52.970;6.954;2022-07-06T06:55:55;15.80;99.90
60353;DHT22;46196;52.970;6.954;2022-07-06T06:58:24;16.00;99.90
60353;DHT22;46196;52.970;6.954;2022-07-06T07:00:53;16.10;99.90
60353;DHT22;46196;52.970;6.954;2022-07-06T07:03:20;16.20;99.90
60353;DHT22;46196;52.970;6.954;2022-07-06T07:05:55;16.20;99.90
60353;DHT22;46196;52.970;6.954;2022-07-06T07:08:21;16.20;99.90
60353;DHT22;46196;52.970;6.954;2022-07-06T07:10:46;16.30;99.90
60353;DHT22;46196;52.970;6.954;2022-07-06T07:13:12;16.30;99.90
60353;DHT22;46196;52.970;6.954;2022-07-06T07:15:38;16.30;99.90
60353;DHT22;46196;52.970;6.954;2022-07-06T07:18:03;16.30;99.90
60353;DHT22;46196;52.970;6.954;2022-07-06T07:20:29;16.30;99.90
60353;DHT22;46196;52.970;6.954;2022-07-06T07:22:56;16.30;99.90
60353;DHT22;46196;52.970;6.954;2022-07-06T07:25:21;16.10;99.90
60353;DHT22;46196;52.970;6.954;2022-07-06T07:27:47;16.10;99.90
60353;DHT22;46196;52.970;6.954;2022-07-06T07:30:13;16.10;99.90
60353;DHT22;46196;52.970;6.954;2022-07-06T07:32:38;16.10;99.90
60353;DHT22;46196;52.970;6.954;2022-07-06T07:35:07;16.00;99.90
60353;DHT22;46196;52.970;6.954;2022-07-06T07:37:33;16.10;99.90
60353;DHT22;46196;52.970;6.954;2022-07-06T07:39:59;16.60;99.90
60353;DHT22;46196;52.970;6.954;2022-07-06T07:42:25;17.20;99.90
60353;DHT22;46196;52.970;6.954;2022-07-06T07:44:51;17.70;99.90
60353;DHT22;46196;52.970;6.954;2022-07-06T07:47:16;18.10;99.90
60353;DHT22;46196;52.970;6.954;2022-07-06T07:49:42;18.70;99.90
60353;DHT22;46196;52.970;6.954;2022-07-06T07:52:08;19.30;99.90
60353;DHT22;46196;52.970;6.954;2022-07-06T07:54:34;19.80;99.90
60353;DHT22;46196;52.970;6.954;2022-07-06T07:56:59;20.20;99.90
60353;DHT22;46196;52.970;6.954;2022-07-06T07:59:25;20.50;99.90
60353;DHT22;46196;52.970;6.954;2022-07-06T08:01:51;20.60;99.00
60353;DHT22;46196;52.970;6.954;2022-07-06T08:04:16;20.70;99.10
60353;DHT22;46196;52.970;6.954;2022-07-06T08:06:42;20.80;99.80
60353;DHT22;46196;52.970;6.954;2022-07-06T08:09:08;21.10;99.40
60353;DHT22;46196;52.970;6.954;2022-07-06T08:11:34;21.30;97.00
60353;DHT22;46196;52.970;6.954;2022-07-06T08:14:00;21.50;94.30
60353;DHT22;46196;52.970;6.954;2022-07-06T08:16:25;21.40;94.80
60353;DHT22;46196;52.970;6.954;2022-07-06T08:18:51;21.60;96.40
60353;DHT22;46196;52.970;6.954;2022-07-06T08:21:17;21.80;94.80
60353;DHT22;46196;52.970;6.954;2022-07-06T08:23:43;22.00;92.50
60353;DHT22;46196;52.970;6.954;2022-07-06T08:26:08;22.30;87.50
60353;DHT22;46196;52.970;6.954;2022-07-06T08:28:34;22.20;88.90
60353;DHT22;46196;52.970;6.954;2022-07-06T08:31:00;22.10;90.40
60353;DHT22;46196;52.970;6.954;2022-07-06T08:33:26;22.00;84.10
60353;DHT22;46196;52.970;6.954;2022-07-06T08:35:51;21.60;81.50
60353;DHT22;46196;52.970;6.954;2022-07-06T08:38:17;21.30;83.70
60353;DHT22;46196;52.970;6.954;2022-07-06T08:40:44;20.70;91.50
60353;DHT22;46196;52.970;6.954;2022-07-06T08:43:10;20.50;85.00
60353;DHT22;46196;52.970;6.954;2022-07-06T08:45:37;20.10;82.40
60353;DHT22;46196;52.970;6.954;2022-07-06T08:48:04;19.90;88.40
60353;DHT22;46196;52.970;6.954;2022-07-06T08:50:30;19.60;91.50
60353;DHT22;46196;52.970;6.954;2022-07-06T08:52:55;19.50;94.40
60353;DHT22;46196;52.970;6.954;2022-07-06T08:55:21;19.60;96.00
60353;DHT22;46196;52.970;6.954;2022-07-06T08:57:47;19.60;98.50
60353;DHT22;46196;52.970;6.954;2022-07-06T09:00:13;19.80;98.40
60353;DHT22;46196;52.970;6.954;2022-07-06T09:02:40;20.20;94.10
60353;DHT22;46196;52.970;6.954;2022-07-06T09:05:06;20.40;95.00
60353;DHT22;46196;52.970;6.954;2022-07-06T09:07:31;20.40;94.80
60353;DHT22;46196;52.970;6.954;2022-07-06T09:09:58;20.30;93.70
60353;DHT22;46196;52.970;6.954;2022-07-06T09:12:26;20.00;96.20
60353;DHT22;46196;52.970;6.954;2022-07-06T09:14:54;19.70;99.30
60353;DHT22;46196;52.970;6.954;2022-07-06T09:17:20;19.30;99.90
60353;DHT22;46196;52.970;6.954;2022-07-06T09:19:45;20.00;99.90
60353;DHT22;46196;52.970;6.954;2022-07-06T09:22:24;18.90;99.90
60353;DHT22;46196;52.970;6.954;2022-07-06T09:24:49;18.70;99.90
60353;DHT22;46196;52.970;6.954;2022-07-06T09:27:16;18.70;99.90
60353;DHT22;46196;52.970;6.954;2022-07-06T09:29:45;18.90;99.90
60353;DHT22;46196;52.970;6.954;2022-07-06T09:32:10;19.10;99.90
60353;DHT22;46196;52.970;6.954;2022-07-06T09:34:40;19.30;99.90
60353;DHT22;46196;52.970;6.954;2022-07-06T09:37:06;19.70;99.90
60353;DHT22;46196;52.970;6.954;2022-07-06T09:39:31;20.00;98.70
60353;DHT22;46196;52.970;6.954;2022-07-06T09:41:58;20.40;98.00
60353;DHT22;46196;52.970;6.954;2022-07-06T09:44:25;20.50;97.20
60353;DHT22;46196;52.970;6.954;2022-07-06T09:46:51;20.60;91.90
60353;DHT22;46196;52.970;6.954;2022-07-06T09:49:18;20.60;91.30
60353;DHT22;46196;52.970;6.954;2022-07-06T09:51:44;20.30;90.30
60353;DHT22;46196;52.970;6.954;2022-07-06T09:54:10;20.30;93.20
60353;DHT22;46196;52.970;6.954;2022-07-06T09:56:39;20.50;93.80
60353;DHT22;46196;52.970;6.954;2022-07-06T09:59:08;20.70;90.70
60353;DHT22;46196;52.970;6.954;2022-07-06T10:01:34;20.60;90.40
60353;DHT22;46196;52.970;6.954;2022-07-06T10:04:00;20.80;90.10
60353;DHT22;46196;52.970;6.954;2022-07-06T10:06:26;20.90;88.80
60353;DHT22;46196;52.970;6.954;2022-07-06T10:08:53;20.90;91.60
60353;DHT22;46196;52.970;6.954;2022-07-06T10:11:18;21.00;85.10
60353;DHT22;46196;52.970;6.954;2022-07-06T10:13:44;20.80;90.20
60353;DHT22;46196;52.970;6.954;2022-07-06T10:16:12;20.50;91.60
60353;DHT22;46196;52.970;6.954;2022-07-06T10:18:39;20.40;93.10
60353;DHT22;46196;52.970;6.954;2022-07-06T10:21:04;20.10;93.90
60353;DHT22;46196;52.970;6.954;2022-07-06T10:23:30;20.00;94.50
60353;DHT22;46196;52.970;6.954;2022-07-06T10:25:57;19.90;92.80
60353;DHT22;46196;52.970;6.954;2022-07-06T10:28:22;19.70;94.00
60353;DHT22;46196;52.970;6.954;2022-07-06T10:30:49;19.60;95.80
60353;DHT22;46196;52.970;6.954;2022-07-06T10:33:15;19.60;97.90
60353;DHT22;46196;52.970;6.954;2022-07-06T10:35:42;19.70;96.90
60353;DHT22;46196;52.970;6.954;2022-07-06T10:38:08;19.80;98.00
60353;DHT22;46196;52.970;6.954;2022-07-06T10:40:34;20.00;96.50
60353;DHT22;46196;52.970;6.954;2022-07-06T10:43:19;20.10;95.50
60353;DHT22;46196;52.970;6.954;2022-07-06T10:50:36;20.50;94.10
60353;DHT22;46196;52.970;6.954;2022-07-06T10:53:02;20.60;95.10
60353;DHT22;46196;52.970;6.954;2022-07-06T10:55:31;20.90;95.60
60353;DHT22;46196;52.970;6.954;2022-07-06T10:57:57;21.30;94.80
60353;DHT22;46196;52.970;6.954;2022-07-06T11:00:23;21.70;86.90
60353;DHT22;46196;52.970;6.954;2022-07-06T11:02:48;22.00;72.70
60353;DHT22;46196;52.970;6.954;2022-07-06T11:08:01;22.00;72.00
60353;DHT22;46196;52.970;6.954;2022-07-06T11:10:27;22.10;69.40
60353;DHT22;46196;52.970;6.954;2022-07-06T11:12:59;22.10;72.50
60353;DHT22;46196;52.970;6.954;2022-07-06T11:18:13;22.10;72.70
60353;DHT22;46196;52.970;6.954;2022-07-06T11:20:55;22.30;63.50
60353;DHT22;46196;52.970;6.954;2022-07-06T11:23:29;22.40;61.50
60353;DHT22;46196;52.970;6.954;2022-07-06T11:25:55;22.60;58.90
60353;DHT22;46196;52.970;6.954;2022-07-06T11:28:21;22.60;61.20
60353;DHT22;46196;52.970;6.954;2022-07-06T11:30:47;22.50;61.90
60353;DHT22;46196;52.970;6.954;2022-07-06T11:33:27;22.70;60.20
60353;DHT22;46196;52.970;6.954;2022-07-06T11:35:53;22.80;57.40
60353;DHT22;46196;52.970;6.954;2022-07-06T11:38:35;22.70;60.40
60353;DHT22;46196;52.970;6.954;2022-07-06T11:41:01;22.50;63.60
60353;DHT22;46196;52.970;6.954;2022-07-06T11:43:26;22.40;61.60
60353;DHT22;46196;52.970;6.954;2022-07-06T11:45:52;22.40;60.10
60353;DHT22;46196;52.970;6.954;2022-07-06T11:48:18;22.30;59.80
60353;DHT22;46196;52.970;6.954;2022-07-06T11:50:56;22.10;62.20
60353;DHT22;46196;52.970;6.954;2022-07-06T11:53:22;22.00;65.20
60353;DHT22;46196;52.970;6.954;2022-07-06T11:55:49;21.80;68.20
60353;DHT22;46196;52.970;6.954;2022-07-06T11:58:15;21.60;74.50
60353;DHT22;46196;52.970;6.954;2022-07-06T12:00:42;21.50;78.80
60353;DHT22;46196;52.970;6.954;2022-07-06T12:03:08;21.40;77.10
60353;DHT22;46196;52.970;6.954;2022-07-06T12:05:35;21.40;77.80
60353;DHT22;46196;52.970;6.954;2022-07-06T12:08:06;21.20;80.70
60353;DHT22;46196;52.970;6.954;2022-07-06T12:10:34;21.20;82.20
60353;DHT22;46196;52.970;6.954;2022-07-06T12:13:02;21.50;82.00
60353;DHT22;46196;52.970;6.954;2022-07-06T12:15:28;21.80;72.20
60353;DHT22;46196;52.970;6.954;2022-07-06T12:17:55;22.00;67.40
60353;DHT22;46196;52.970;6.954;2022-07-06T12:20:21;22.00;72.40
60353;DHT22;46196;52.970;6.954;2022-07-06T12:22:47;22.10;71.30
60353;DHT22;46196;52.970;6.954;2022-07-06T12:25:28;22.30;65.60
60353;DHT22;46196;52.970;6.954;2022-07-06T12:27:54;22.40;63.70
60353;DHT22;46196;52.970;6.954;2022-07-06T12:30:22;22.40;63.90
60353;DHT22;46196;52.970;6.954;2022-07-06T12:33:33;22.00;65.80
60353;DHT22;46196;52.970;6.954;2022-07-06T12:35:34;21.90;67.30
60353;DHT22;46196;52.970;6.954;2022-07-06T12:38:03;21.70;69.30
60353;DHT22;46196;52.970;6.954;2022-07-06T12:40:32;21.60;68.20
60353;DHT22;46196;52.970;6.954;2022-07-06T12:42:58;21.50;66.60
60353;DHT22;46196;52.970;6.954;2022-07-06T12:45:28;21.50;69.30
60353;DHT22;46196;52.970;6.954;2022-07-06T12:48:01;21.40;72.90
60353;DHT22;46196;52.970;6.954;2022-07-06T12:50:46;21.40;73.80
60353;DHT22;46196;52.970;6.954;2022-07-06T12:53:24;21.50;68.30
60353;DHT22;46196;52.970;6.954;2022-07-06T12:56:07;21.70;67.80
60353;DHT22;46196;52.970;6.954;2022-07-06T12:58:33;22.00;68.60
60353;DHT22;46196;52.970;6.954;2022-07-06T13:01:00;22.00;66.40
60353;DHT22;46196;52.970;6.954;2022-07-06T13:03:26;22.00;69.50
60353;DHT22;46196;52.970;6.954;2022-07-06T13:05:51;22.10;72.60
60353;DHT22;46196;52.970;6.954;2022-07-06T13:08:18;22.10;67.80
60353;DHT22;46196;52.970;6.954;2022-07-06T13:10:43;22.20;66.50
60353;DHT22;46196;52.970;6.954;2022-07-06T13:13:10;22.10;59.70
60353;DHT22;46196;52.970;6.954;2022-07-06T13:15:36;22.10;63.90
60353;DHT22;46196;52.970;6.954;2022-07-06T13:18:02;22.10;70.00
60353;DHT22;46196;52.970;6.954;2022-07-06T13:20:28;22.30;67.10
60353;DHT22;46196;52.970;6.954;2022-07-06T13:22:54;22.40;61.90
60353;DHT22;46196;52.970;6.954;2022-07-06T13:25:21;22.50;64.20
60353;DHT22;46196;52.970;6.954;2022-07-06T13:27:46;22.40;65.50
60353;DHT22;46196;52.970;6.954;2022-07-06T13:30:14;22.30;63.10
60353;DHT22;46196;52.970;6.954;2022-07-06T13:32:39;22.10;63.70
60353;DHT22;46196;52.970;6.954;2022-07-06T13:35:05;21.70;65.20
60353;DHT22;46196;52.970;6.954;2022-07-06T13:37:32;21.50;69.40
60353;DHT22;46196;52.970;6.954;2022-07-06T13:39:58;21.30;70.40
60353;DHT22;46196;52.970;6.954;2022-07-06T13:42:24;21.20;74.50
60353;DHT22;46196;52.970;6.954;2022-07-06T13:44:50;21.20;72.50
60353;DHT22;46196;52.970;6.954;2022-07-06T13:47:15;21.40;71.30
60353;DHT22;46196;52.970;6.954;2022-07-06T13:49:41;21.60;73.30
60353;DHT22;46196;52.970;6.954;2022-07-06T13:52:09;21.70;70.70
60353;DHT22;46196;52.970;6.954;2022-07-06T13:54:34;21.70;69.60
60353;DHT22;46196;52.970;6.954;2022-07-06T13:57:03;21.70;67.40
60353;DHT22;46196;52.970;6.954;2022-07-06T13:59:29;21.60;66.70
60353;DHT22;46196;52.970;6.954;2022-07-06T14:01:55;21.50;63.60
60353;DHT22;46196;52.970;6.954;2022-07-06T14:04:21;21.40;67.10
60353;DHT22;46196;52.970;6.954;2022-07-06T14:06:46;21.30;70.50
60353;DHT22;46196;52.970;6.954;2022-07-06T14:09:12;21.20;75.60
60353;DHT22;46196;52.970;6.954;2022-07-06T14:11:38;21.10;78.60
60353;DHT22;46196;52.970;6.954;2022-07-06T14:14:04;21.00;79.10
60353;DHT22;46196;52.970;6.954;2022-07-06T14:16:32;20.90;77.50
60353;DHT22;46196;52.970;6.954;2022-07-06T14:18:59;20.90;72.00
60353;DHT22;46196;52.970;6.954;2022-07-06T14:21:25;20.60;76.10
60353;DHT22;46196;52.970;6.954;2022-07-06T14:23:51;20.60;77.10
60353;DHT22;46196;52.970;6.954;2022-07-06T14:26:16;20.50;79.60
60353;DHT22;46196;52.970;6.954;2022-07-06T14:28:43;20.50;83.60
60353;DHT22;46196;52.970;6.954;2022-07-06T14:31:09;20.40;83.40
60353;DHT22;46196;52.970;6.954;2022-07-06T14:33:34;20.40;80.20
60353;DHT22;46196;52.970;6.954;2022-07-06T14:36:00;20.40;75.30
60353;DHT22;46196;52.970;6.954;2022-07-06T14:38:26;20.30;74.70
60353;DHT22;46196;52.970;6.954;2022-07-06T14:40:53;20.30;78.50
60353;DHT22;46196;52.970;6.954;2022-07-06T14:43:18;20.20;78.00
60353;DHT22;46196;52.970;6.954;2022-07-06T14:45:44;20.10;78.40
60353;DHT22;46196;52.970;6.954;2022-07-06T14:48:10;20.10;78.40
60353;DHT22;46196;52.970;6.954;2022-07-06T14:50:36;20.00;79.70
60353;DHT22;46196;52.970;6.954;2022-07-06T14:53:02;20.00;82.30
60353;DHT22;46196;52.970;6.954;2022-07-06T14:55:27;20.10;82.30
60353;DHT22;46196;52.970;6.954;2022-07-06T14:57:53;20.10;82.40
60353;DHT22;46196;52.970;6.954;2022-07-06T15:00:20;20.10;86.40
60353;DHT22;46196;52.970;6.954;2022-07-06T15:02:46;20.10;89.60
60353;DHT22;46196;52.970;6.954;2022-07-06T15:05:12;19.90;89.50
60353;DHT22;46196;52.970;6.954;2022-07-06T15:07:37;19.70;87.60
60353;DHT22;46196;52.970;6.954;2022-07-06T15:10:04;19.60;89.50
60353;DHT22;46196;52.970;6.954;2022-07-06T15:12:29;19.60;91.60
60353;DHT22;46196;52.970;6.954;2022-07-06T15:14:55;19.50;93.00
60353;DHT22;46196;52.970;6.954;2022-07-06T15:17:21;19.40;93.40
60353;DHT22;46196;52.970;6.954;2022-07-06T15:19:46;19.40;95.40
60353;DHT22;46196;52.970;6.954;2022-07-06T15:22:12;19.30;96.00
60353;DHT22;46196;52.970;6.954;2022-07-06T15:24:38;19.40;97.20
60353;DHT22;46196;52.970;6.954;2022-07-06T15:27:04;19.40;95.20
60353;DHT22;46196;52.970;6.954;2022-07-06T15:29:30;19.30;96.60
60353;DHT22;46196;52.970;6.954;2022-07-06T15:31:55;19.20;96.70
60353;DHT22;46196;52.970;6.954;2022-07-06T15:34:21;19.10;97.20
60353;DHT22;46196;52.970;6.954;2022-07-06T15:36:47;19.00;97.80